< < Back
Terminal Aerodrome Forecast


Current Version              Previous Versions:   1  2  3  4  5  6  7  8  9  

Terminal Aerodrome Forecast

026
FTUS44 KBMX 222300
TAFANB
TAF
KANB 222338Z 2300/2324 36007KT P6SM SKC
     FM230500 05003KT P6SM SKC
     FM231500 05007KT P6SM SKC=

Latest METAR

737
SAUS70 KWBC 230000 RRF
MTRANB
METAR KANB 222353Z AUTO 35003KT 10SM CLR 23/09 A3008 RMK AO2 SLP181
T02280094 10278 20228 53006


USA.gov is the U.S. government's official web portal to all federal, state and local government web resources and services.